createdAt,value
2022-08-25T00:01:31.329Z,99186.97
2022-08-25T00:04:35.426Z,99190.72
2022-08-25T00:07:38.798Z,99187.78
2022-08-25T00:10:40.716Z,99183.47
2022-08-25T00:13:43.820Z,99183.41
2022-08-25T00:16:45.618Z,99188.69
2022-08-25T00:19:47.267Z,99190.75
2022-08-25T00:22:49.407Z,99197.72
2022-08-25T00:25:51.408Z,99195.53
2022-08-25T00:28:56.388Z,99203.78
2022-08-25T00:32:03.533Z,99188.19
2022-08-25T00:35:05.342Z,99190.56
2022-08-25T00:38:07.058Z,99195.13
2022-08-25T00:41:11.174Z,99192.75
2022-08-25T00:44:13.891Z,99169.13
2022-08-25T00:47:16.038Z,99170.31
2022-08-25T00:50:17.824Z,99175.09
2022-08-25T00:53:19.517Z,99173.78
2022-08-25T00:56:21.661Z,99185.41
2022-08-25T00:59:23.990Z,99196.72
2022-08-25T01:02:26.020Z,99192.66
2022-08-25T01:05:29.689Z,99186.00
2022-08-25T01:08:32.315Z,99197.31
2022-08-25T01:11:34.610Z,99188.84
2022-08-25T01:14:36.174Z,99191.25
2022-08-25T01:17:56.606Z,99206.53
2022-08-25T01:20:59.832Z,99212.28
2022-08-25T01:24:01.519Z,99206.78
2022-08-25T01:27:03.302Z,99209.03
2022-08-25T01:30:05.125Z,99207.53
2022-08-25T01:33:07.503Z,99210.69
2022-08-25T01:36:18.295Z,99210.69
2022-08-25T01:39:20.074Z,99215.91
2022-08-25T01:42:29.152Z,99213.41
2022-08-25T01:45:30.752Z,99211.63
2022-08-25T01:48:33.186Z,99209.34
2022-08-25T01:51:38.559Z,99214.38
2022-08-25T01:54:40.275Z,99190.91
2022-08-25T01:57:42.409Z,99189.34
2022-08-25T02:00:50.780Z,99199.69
2022-08-25T02:03:53.030Z,99194.53
2022-08-25T02:06:54.578Z,99195.53
2022-08-25T02:09:56.142Z,99195.09
2022-08-25T02:13:00.403Z,99199.28
2022-08-25T02:16:02.439Z,99202.88
2022-08-25T02:19:05.070Z,99205.03
2022-08-25T02:22:06.866Z,99204.09
2022-08-25T02:25:08.840Z,99182.69
2022-08-25T02:28:10.648Z,99185.81
2022-08-25T02:31:12.684Z,99201.31
2022-08-25T02:34:15.366Z,99197.84
2022-08-25T02:37:17.016Z,99202.53
2022-08-25T02:40:19.100Z,99204.06
2022-08-25T02:43:20.710Z,99191.84
2022-08-25T02:46:22.723Z,99199.00
2022-08-25T02:49:24.429Z,99203.78
2022-08-25T02:52:26.109Z,99191.47
2022-08-25T02:55:27.737Z,99193.84
2022-08-25T02:58:29.292Z,99187.44
2022-08-25T03:01:32.253Z,99189.28
2022-08-25T03:04:34.112Z,99181.56
2022-08-25T03:07:36.358Z,99178.28
2022-08-25T03:10:38.335Z,99170.25
2022-08-25T03:13:40.189Z,99181.56
2022-08-25T03:16:42.959Z,99173.75
2022-08-25T03:19:48.043Z,99169.06
2022-08-25T03:22:49.906Z,99159.25
2022-08-25T03:26:10.300Z,99155.09
2022-08-25T03:29:11.977Z,99147.19
2022-08-25T03:32:13.683Z,99146.91
2022-08-25T03:35:15.489Z,99150.38
2022-08-25T03:38:17.125Z,99138.13
2022-08-25T03:41:21.575Z,99136.06
2022-08-25T03:44:23.277Z,99139.22
2022-08-25T03:47:29.478Z,99140.13
2022-08-25T03:50:31.213Z,99148.38
2022-08-25T03:53:32.852Z,99150.84
2022-08-25T03:56:34.534Z,99169.06
2022-08-25T03:59:38.585Z,99158.09
2022-08-25T04:02:40.708Z,99150.25
2022-08-25T04:05:43.107Z,99149.75
2022-08-25T04:08:44.761Z,99152.31
2022-08-25T04:11:47.166Z,99144.22
2022-08-25T04:14:53.578Z,99147.78
2022-08-25T04:17:55.407Z,99148.75
2022-08-25T04:21:02.001Z,99142.94
2022-08-25T04:24:04.143Z,99145.06
2022-08-25T04:27:05.732Z,99148.16
2022-08-25T04:30:08.877Z,99137.25
2022-08-25T04:33:10.493Z,99132.69
2022-08-25T04:36:12.582Z,99128.88
2022-08-25T04:39:14.873Z,99130.56
2022-08-25T04:42:16.586Z,99116.09
2022-08-25T04:45:18.229Z,99116.22
2022-08-25T04:48:19.888Z,99127.94
2022-08-25T04:51:32.007Z,99143.03
2022-08-25T04:54:37.095Z,99141.03
2022-08-25T04:57:39.347Z,99140.59
2022-08-25T05:00:41.645Z,99144.78
2022-08-25T05:03:43.751Z,99136.53
2022-08-25T05:06:46.706Z,99121.34
2022-08-25T05:09:48.263Z,99121.50
2022-08-25T05:12:50.157Z,99126.28
2022-08-25T05:16:00.274Z,99122.63
2022-08-25T05:19:02.281Z,99123.63
2022-08-25T05:22:03.880Z,99142.88
2022-08-25T05:25:05.684Z,99140.00
2022-08-25T05:28:07.375Z,99138.91
2022-08-25T05:31:10.009Z,99138.09
2022-08-25T05:34:12.276Z,99135.94
2022-08-25T05:37:13.887Z,99145.47
2022-08-25T05:40:15.565Z,99139.81
2022-08-25T05:43:17.229Z,99155.09
2022-08-25T05:46:19.293Z,99159.22
2022-08-25T05:49:20.925Z,99155.06
2022-08-25T05:52:22.526Z,99157.91
2022-08-25T05:55:24.174Z,99150.25
2022-08-25T05:58:26.941Z,99150.06
2022-08-25T06:01:47.857Z,99150.38
2022-08-25T06:04:49.449Z,99160.75
2022-08-25T06:07:51.840Z,99142.09
2022-08-25T06:10:53.438Z,99156.50
2022-08-25T06:13:55.499Z,99141.78
2022-08-25T06:16:57.086Z,99146.56
2022-08-25T06:19:58.682Z,99146.75
2022-08-25T06:23:00.576Z,99162.75
2022-08-25T06:26:02.658Z,99164.91
2022-08-25T06:29:05.022Z,99167.31
2022-08-25T06:32:06.731Z,99164.91
2022-08-25T06:35:10.535Z,99159.47
2022-08-25T06:38:12.181Z,99158.88
2022-08-25T06:41:14.068Z,99149.44
2022-08-25T06:44:15.886Z,99153.91
2022-08-25T06:47:18.026Z,99146.47
2022-08-25T06:50:19.770Z,99155.50
2022-08-25T06:53:21.369Z,99165.75
2022-08-25T06:56:28.038Z,99164.66
2022-08-25T06:59:32.113Z,99176.44
2022-08-25T07:02:35.444Z,99181.53
2022-08-25T07:05:44.411Z,99184.38
2022-08-25T07:08:46.650Z,99186.00
2022-08-25T07:11:48.268Z,99170.91
2022-08-25T07:15:10.124Z,99171.38
2022-08-25T07:18:11.895Z,99162.75
2022-08-25T07:21:14.250Z,99161.13
2022-08-25T07:24:16.394Z,99171.50
2022-08-25T07:27:18.034Z,99183.78
2022-08-25T07:30:19.718Z,99186.00
2022-08-25T07:33:21.998Z,99193.34
2022-08-25T07:36:23.573Z,99189.38
2022-08-25T07:39:26.442Z,99192.75
2022-08-25T07:42:28.101Z,99188.38
2022-08-25T07:45:30.787Z,99191.78
2022-08-25T07:48:32.749Z,99192.47
2022-08-25T07:51:34.415Z,99207.06
2022-08-25T07:54:37.998Z,99204.69
2022-08-25T07:57:40.344Z,99215.59
2022-08-25T08:00:42.226Z,99213.94
2022-08-25T08:03:50.833Z,99223.25
2022-08-25T08:06:53.054Z,99231.50
2022-08-25T08:10:13.644Z,99235.47
2022-08-25T08:13:18.630Z,99239.94
2022-08-25T08:16:20.931Z,99240.72
2022-08-25T08:19:23.053Z,99240.94
2022-08-25T08:22:24.896Z,99247.47
2022-08-25T08:25:27.684Z,99247.44
2022-08-25T08:28:30.162Z,99242.09
2022-08-25T08:31:31.778Z,99235.28
2022-08-25T08:34:34.365Z,99234.88
2022-08-25T08:37:38.173Z,99237.16
2022-08-25T08:41:05.810Z,99227.75
2022-08-25T08:44:20.136Z,99230.34
2022-08-25T08:47:27.482Z,99219.59
2022-08-25T08:50:33.138Z,99228.78
2022-08-25T08:53:46.322Z,99225.84
2022-08-25T08:56:49.057Z,99228.41
2022-08-25T08:59:55.492Z,99230.75
2022-08-25T09:03:04.088Z,99232.50
2022-08-25T09:06:10.483Z,99225.84
2022-08-25T09:09:21.019Z,99229.63
2022-08-25T09:12:39.059Z,99231.72
2022-08-25T09:16:00.211Z,99227.13
2022-08-25T09:19:03.036Z,99218.34
2022-08-25T09:22:35.074Z,99221.88
2022-08-25T09:25:52.781Z,99217.88
2022-08-25T09:29:02.195Z,99211.31
2022-08-25T09:32:07.820Z,99211.84
2022-08-25T09:35:15.686Z,99212.31
2022-08-25T09:38:19.608Z,99206.06
2022-08-25T09:41:39.982Z,99200.84
2022-08-25T09:44:43.723Z,99192.75
2022-08-25T09:47:45.633Z,99195.56
2022-08-25T09:50:48.490Z,99198.63
2022-08-25T09:53:52.637Z,99194.38
2022-08-25T09:56:55.042Z,99198.78
2022-08-25T09:59:57.337Z,99195.75
2022-08-25T10:03:06.330Z,99192.75
2022-08-25T10:06:13.193Z,99197.69
2022-08-25T10:09:23.343Z,99197.69
2022-08-25T10:12:29.294Z,99193.75
2022-08-25T10:15:32.533Z,99200.09
2022-08-25T10:18:34.261Z,99191.56
2022-08-25T10:21:37.468Z,99188.13
2022-08-25T10:24:39.564Z,99185.06
2022-08-25T10:27:52.773Z,99185.69
2022-08-25T10:30:55.757Z,99184.09
2022-08-25T10:34:15.623Z,99168.28
2022-08-25T10:37:36.365Z,99165.44
2022-08-25T10:41:01.641Z,99164.38
2022-08-25T10:44:07.007Z,99155.59
2022-08-25T10:47:27.803Z,99163.25
2022-08-25T10:50:29.744Z,99163.88
2022-08-25T10:53:31.309Z,99155.97
2022-08-25T10:56:40.792Z,99151.69
2022-08-25T10:59:42.619Z,99144.41
2022-08-25T11:02:57.762Z,99153.94
2022-08-25T11:06:01.550Z,99151.38
2022-08-25T11:09:05.705Z,99159.28
2022-08-25T11:12:07.590Z,99160.41
2022-08-25T11:15:10.323Z,99148.78
2022-08-25T11:18:14.832Z,99153.69
2022-08-25T11:21:18.310Z,99157.03
2022-08-25T11:24:42.443Z,99159.28
2022-08-25T11:27:46.362Z,99152.59
2022-08-25T11:30:47.964Z,99150.81
2022-08-25T11:33:51.012Z,99147.66
2022-08-25T11:36:53.456Z,99158.84
2022-08-25T11:40:11.838Z,99154.53
2022-08-25T11:43:16.259Z,99157.38
2022-08-25T11:46:18.839Z,99155.47
2022-08-25T11:49:21.833Z,99158.28
2022-08-25T11:52:38.422Z,99159.94
2022-08-25T11:55:50.065Z,99157.72
2022-08-25T11:58:52.682Z,99155.34
2022-08-25T12:01:54.882Z,99155.03
2022-08-25T12:04:56.655Z,99148.69
2022-08-25T12:08:23.614Z,99149.66
2022-08-25T12:11:44.262Z,99142.84
2022-08-25T12:14:46.153Z,99145.88
2022-08-25T12:18:08.558Z,99143.81
2022-08-25T12:21:11.275Z,99149.72
2022-08-25T12:24:13.387Z,99149.53
2022-08-25T12:27:33.870Z,99156.47
2022-08-25T12:30:50.539Z,99163.03
2022-08-25T12:33:52.453Z,99166.41
2022-08-25T12:36:58.298Z,99163.53
2022-08-25T12:40:01.376Z,99159.88
2022-08-25T12:43:04.686Z,99166.00
2022-08-25T12:46:36.021Z,99164.72
2022-08-25T12:49:37.661Z,99163.06
2022-08-25T12:52:39.239Z,99162.69
2022-08-25T12:55:44.315Z,99151.16
2022-08-25T12:59:00.463Z,99148.50
2022-08-25T13:02:21.825Z,99135.66
2022-08-25T13:05:25.510Z,99132.69
2022-08-25T13:08:47.945Z,99136.81
2022-08-25T13:11:58.706Z,99147.94
2022-08-25T13:15:01.185Z,99140.16
2022-08-25T13:18:21.934Z,99145.84
2022-08-25T13:21:25.148Z,99147.13
2022-08-25T13:24:28.486Z,99153.56
2022-08-25T13:27:31.067Z,99154.13
2022-08-25T13:30:35.255Z,99146.97
2022-08-25T13:33:37.150Z,99149.78
2022-08-25T13:37:01.710Z,99156.88
2022-08-25T13:40:24.518Z,99154.63
2022-08-25T13:43:27.813Z,99151.06
2022-08-25T13:46:29.740Z,99147.72
2022-08-25T13:49:31.765Z,99148.31
2022-08-25T13:52:33.504Z,99146.84
2022-08-25T13:55:51.459Z,99143.94
2022-08-25T13:58:53.572Z,99131.69
2022-08-25T14:01:59.961Z,99130.91
2022-08-25T14:05:01.733Z,99131.00
2022-08-25T14:08:16.068Z,99134.63
2022-08-25T14:11:30.291Z,99138.28
2022-08-25T14:14:33.800Z,99142.78
2022-08-25T14:17:39.824Z,99140.06
2022-08-25T14:20:46.407Z,99123.28
2022-08-25T14:23:48.100Z,99117.41
2022-08-25T14:26:53.917Z,99124.41
2022-08-25T14:29:56.455Z,99125.59
2022-08-25T14:32:58.690Z,99125.81
2022-08-25T14:36:02.600Z,99134.78
2022-08-25T14:39:08.894Z,99126.84
2022-08-25T14:42:11.620Z,99131.75
2022-08-25T14:45:14.578Z,99131.47
2022-08-25T14:48:27.082Z,99125.88
2022-08-25T14:51:29.672Z,99136.97
2022-08-25T14:54:34.689Z,99135.34
2022-08-25T14:57:37.532Z,99129.47
2022-08-25T15:00:40.889Z,99116.91
2022-08-25T15:03:43.839Z,99123.19
2022-08-25T15:06:50.574Z,99106.50
2022-08-25T15:09:53.384Z,99098.94
2022-08-25T15:12:55.048Z,99097.69
2022-08-25T15:15:58.024Z,99107.06
2022-08-25T15:19:00.245Z,99097.50
2022-08-25T15:22:04.844Z,99105.06
2022-08-25T15:25:08.615Z,99104.78
2022-08-25T15:28:10.970Z,99097.56
2022-08-25T15:31:12.789Z,99090.75
2022-08-25T15:34:14.923Z,99098.75
2022-08-25T15:37:16.711Z,99090.03
2022-08-25T15:40:18.403Z,99100.47
2022-08-25T15:43:20.154Z,99097.94
2022-08-25T15:46:23.870Z,99100.16
2022-08-25T15:49:26.242Z,99095.63
2022-08-25T15:52:45.908Z,99111.31
2022-08-25T15:55:48.874Z,99109.16
2022-08-25T15:58:54.508Z,99104.00
2022-08-25T16:01:56.637Z,99095.41
2022-08-25T16:04:59.242Z,99096.00
2022-08-25T16:08:02.070Z,99094.44
2022-08-25T16:11:04.931Z,99104.69
2022-08-25T16:14:09.330Z,99097.94
2022-08-25T16:17:11.132Z,99100.25
2022-08-25T16:20:13.846Z,99097.06
2022-08-25T16:23:19.885Z,99089.16
2022-08-25T16:26:23.047Z,99100.88
2022-08-25T16:29:24.805Z,99098.13
2022-08-25T16:32:28.979Z,99094.75
2022-08-25T16:35:36.429Z,99091.19
2022-08-25T16:38:42.939Z,99092.66
2022-08-25T16:41:51.984Z,99095.19
2022-08-25T16:44:54.110Z,99100.44
2022-08-25T16:47:55.788Z,99093.88
2022-08-25T16:50:59.521Z,99089.31
2022-08-25T16:54:22.104Z,99077.13
2022-08-25T16:57:23.993Z,99070.00
2022-08-25T17:00:28.533Z,99072.38
2022-08-25T17:03:34.084Z,99069.28
2022-08-25T17:06:37.303Z,99077.09
2022-08-25T17:09:39.516Z,99078.78
2022-08-25T17:12:41.988Z,99080.88
2022-08-25T17:15:52.392Z,99078.00
2022-08-25T17:18:55.628Z,99087.72
2022-08-25T17:21:58.778Z,99085.34
2022-08-25T17:25:01.028Z,99094.63
2022-08-25T17:28:03.231Z,99082.56
2022-08-25T17:31:05.584Z,99076.06
2022-08-25T17:34:08.871Z,99100.88
2022-08-25T17:37:11.099Z,99098.53
2022-08-25T17:40:14.051Z,99098.72
2022-08-25T17:43:15.835Z,99098.41
2022-08-25T17:46:17.616Z,99108.66
2022-08-25T17:49:19.978Z,99102.75
2022-08-25T17:52:25.493Z,99113.34
2022-08-25T17:55:27.409Z,99107.09
2022-08-25T17:58:30.125Z,99114.31
2022-08-25T18:01:33.190Z,99116.53
2022-08-25T18:04:35.852Z,99120.41
2022-08-25T18:07:39.430Z,99120.56
2022-08-25T18:10:44.245Z,99113.81
2022-08-25T18:13:45.969Z,99129.88
2022-08-25T18:16:47.581Z,99133.19
2022-08-25T18:19:49.863Z,99138.72
2022-08-25T18:22:53.995Z,99127.38
2022-08-25T18:26:00.870Z,99146.50
2022-08-25T18:29:03.413Z,99142.50
2022-08-25T18:32:08.685Z,99145.59
2022-08-25T18:35:14.709Z,99136.13
2022-08-25T18:38:35.169Z,99137.44
2022-08-25T18:41:40.375Z,99146.72
2022-08-25T18:44:46.445Z,99148.56
2022-08-25T18:47:49.829Z,99150.72
2022-08-25T18:50:51.999Z,99153.88
2022-08-25T18:53:54.651Z,99152.69
2022-08-25T18:57:01.014Z,99168.31
2022-08-25T19:00:03.779Z,99168.75
2022-08-25T19:03:06.091Z,99181.19
2022-08-25T19:06:08.127Z,99182.69
2022-08-25T19:09:09.694Z,99174.94
2022-08-25T19:12:11.625Z,99184.00
2022-08-25T19:15:24.903Z,99190.97
2022-08-25T19:18:29.200Z,99186.97
2022-08-25T19:21:32.002Z,99185.91
2022-08-25T19:24:34.591Z,99192.25
2022-08-25T19:27:36.424Z,99183.81
2022-08-25T19:30:39.366Z,99190.97
2022-08-25T19:33:52.960Z,99178.94
2022-08-25T19:36:55.545Z,99194.94
2022-08-25T19:39:57.354Z,99186.47
2022-08-25T19:42:59.593Z,99205.56
2022-08-25T19:46:01.251Z,99191.38
2022-08-25T19:49:07.918Z,99194.41
2022-08-25T19:52:11.108Z,99195.50
2022-08-25T19:55:12.673Z,99202.91
2022-08-25T19:58:14.769Z,99190.81
2022-08-25T20:01:18.226Z,99200.84
2022-08-25T20:04:20.467Z,99199.88
2022-08-25T20:07:23.720Z,99191.53
2022-08-25T20:10:28.208Z,99199.13
2022-08-25T20:13:29.867Z,99200.72
2022-08-25T20:16:31.644Z,99206.28
2022-08-25T20:19:33.306Z,99203.94
2022-08-25T20:22:35.458Z,99207.06
2022-08-25T20:25:37.734Z,99203.06
2022-08-25T20:28:42.255Z,99192.47
2022-08-25T20:31:44.007Z,99199.47
2022-08-25T20:34:46.004Z,99197.91
2022-08-25T20:37:48.762Z,99195.25
2022-08-25T20:40:54.817Z,99199.97
2022-08-25T20:43:56.598Z,99196.13
2022-08-25T20:46:59.302Z,99194.41
2022-08-25T20:50:05.866Z,99196.28
2022-08-25T20:53:10.324Z,99195.22
2022-08-25T20:56:16.118Z,99192.25
2022-08-25T20:59:18.351Z,99187.53
2022-08-25T21:02:21.539Z,99197.38
2022-08-25T21:05:23.211Z,99198.66
2022-08-25T21:08:25.745Z,99208.63
2022-08-25T21:11:27.649Z,99200.78
2022-08-25T21:14:29.318Z,99197.97
2022-08-25T21:17:30.867Z,99197.69
2022-08-25T21:20:32.483Z,99202.22
2022-08-25T21:23:34.038Z,99207.56
2022-08-25T21:26:35.679Z,99199.97
2022-08-25T21:29:37.244Z,99188.50
2022-08-25T21:32:38.843Z,99194.75
2022-08-25T21:35:41.163Z,99194.22
2022-08-25T21:38:44.797Z,99194.63
2022-08-25T21:41:46.378Z,99195.66
2022-08-25T21:44:49.493Z,99185.53
2022-08-25T21:47:51.823Z,99185.13
2022-08-25T21:51:10.231Z,99184.28
2022-08-25T21:54:13.457Z,99185.75
2022-08-25T21:57:16.722Z,99184.63
2022-08-25T22:00:19.122Z,99175.69
2022-08-25T22:03:23.007Z,99177.69
2022-08-25T22:06:25.318Z,99181.94
2022-08-25T22:09:28.166Z,99181.44
2022-08-25T22:12:30.067Z,99172.03
2022-08-25T22:15:31.627Z,99181.44
2022-08-25T22:18:33.161Z,99183.75
2022-08-25T22:21:35.562Z,99177.06
2022-08-25T22:24:37.937Z,99179.81
2022-08-25T22:27:39.470Z,99180.16
2022-08-25T22:30:42.494Z,99181.19
2022-08-25T22:33:44.169Z,99182.72
2022-08-25T22:36:47.092Z,99182.47
2022-08-25T22:39:49.503Z,99183.03
2022-08-25T22:42:52.247Z,99166.88
2022-08-25T22:45:59.791Z,99179.56
2022-08-25T22:49:01.346Z,99185.75
2022-08-25T22:52:03.056Z,99182.84
2022-08-25T22:55:05.406Z,99189.59
2022-08-25T22:58:14.619Z,99185.84
2022-08-25T23:01:17.654Z,99194.88
2022-08-25T23:04:19.316Z,99199.19
2022-08-25T23:07:22.120Z,99183.78
2022-08-25T23:10:25.525Z,99199.28
2022-08-25T23:13:34.481Z,99199.81
2022-08-25T23:16:36.885Z,99190.16
2022-08-25T23:19:38.436Z,99184.31
2022-08-25T23:22:39.990Z,99186.38
2022-08-25T23:25:43.238Z,99188.81
2022-08-25T23:28:44.840Z,99187.78
2022-08-25T23:31:46.879Z,99194.47
2022-08-25T23:34:49.447Z,99194.75
2022-08-25T23:37:51.485Z,99190.19
2022-08-25T23:40:53.446Z,99192.56
2022-08-25T23:43:56.051Z,99183.06
2022-08-25T23:46:57.931Z,99183.91
2022-08-25T23:49:59.619Z,99182.78
2022-08-25T23:53:01.496Z,99188.69
2022-08-25T23:56:03.622Z,99187.03
2022-08-25T23:59:09.337Z,99190.00
